Погода Байанна 2 недели

Пара, Бразилия

20 июля-02 августа
  • 20июля
    Сегодня
    +24°
    +35°
    Ясно и безоблачно
    ВремяПогодаТемператураВлажностьДавлениеВетер, м/сВероятность осадков
    00:00Небольшая облачность+27°C74 %759 мм2.0 м/с4 %
    03:00Ясно и безоблачно+26°C76 %758 мм1.6 м/с11 %
    06:00Ясно и безоблачно+24°C88 %759 мм2.3 м/с4 %
    09:00Ясно и безоблачно+29°C76 %760 мм1.2 м/с5 %
    12:00Ясно и безоблачно+33°C49 %759 мм1.8 м/с5 %
    15:00Ясно и безоблачно+34°C41 %756 мм2.6 м/с10 %
    18:00Ясно и безоблачно+32°C63 %756 мм1.0 м/с2 %
    21:00Небольшая облачность+29°C74 %758 мм1.6 м/с5 %
  • 21июля
    Воскресенье
    +22°
    +35°
    Ясно и безоблачно
    ВремяПогодаТемператураВлажностьДавлениеВетер, м/сВероятность осадков
    00:00Практически безоблачно+28°C73 %758 мм2.4 м/с5 %
    03:00Небольшая облачность+27°C77 %757 мм2.6 м/с5 %
    06:00Ясно и безоблачно+24°C92 %757 мм1.6 м/с2 %
    09:00Ясно и безоблачно+29°C71 %759 мм1.6 м/с1 %
    12:00Ясно и безоблачно+33°C44 %758 мм2.9 м/с3 %
    15:00Ясно и безоблачно+34°C35 %755 мм2.9 м/с2 %
    18:00Ясно и безоблачно+32°C55 %755 мм0.9 м/с5 %
    21:00Ясно и безоблачно+29°C62 %757 мм1.9 м/с2 %
  • 22июля
    Понедельник
    +23°
    +36°
    Ясно и безоблачно
    ВремяПогодаТемператураВлажностьДавлениеВетер, м/сВероятность осадков
    00:00Ясно и безоблачно+26°C64 %758 мм1.9 м/с2 %
    03:00Ясно и безоблачно+25°C64 %757 мм2.4 м/с5 %
    06:00Ясно и безоблачно+23°C79 %758 мм1.7 м/с5 %
    09:00Ясно и безоблачно+29°C61 %759 мм1.0 м/с5 %
    12:00Ясно и безоблачно+33°C41 %758 мм2.6 м/с4 %
    15:00Ясно и безоблачно+35°C30 %756 мм2.3 м/с5 %
    18:00Ясно и безоблачно+32°C48 %756 мм1.8 м/с5 %
    21:00Ясно и безоблачно+30°C57 %758 мм2.2 м/с5 %
  • 23июля
    Вторник
    +24°
    +36°
    Ясно и безоблачно
    ВремяПогодаТемператураВлажностьДавлениеВетер, м/сВероятность осадков
    00:00Ясно и безоблачно+27°C58 %759 мм2.5 м/с5 %
    03:00Ясно и безоблачно+25°C62 %758 мм2.6 м/с5 %
    06:00Ясно и безоблачно+24°C75 %758 мм1.8 м/с3 %
    09:00Ясно и безоблачно+29°C64 %760 мм1.6 м/с5 %
    12:00Ясно и безоблачно+34°C39 %759 мм2.3 м/с4 %
    15:00Ясно и безоблачно+35°C33 %757 мм2.5 м/с6 %
    18:00Небольшая облачность+32°C43 %757 мм1.8 м/с5 %
    21:00Ясно и безоблачно+30°C62 %758 мм2.4 м/с11 %
  • 24июля
    Среда
    +25°
    +35°
    Небольшая облачность и лёгкий дождик
    ВремяПогодаТемператураВлажностьДавлениеВетер, м/сВероятность осадков
    00:00Ясно и безоблачно+27°C76 %759 мм1.9 м/с8 %
    03:00Облачно с прояснениями+26°C83 %759 мм2.0 м/с4 %
    06:00Небольшая облачность+25°C91 %758 мм2.0 м/с4 %
    09:00Ясно и безоблачно+29°C75 %759 мм1.8 м/с5 %
    12:00Ясно и безоблачно+34°C48 %759 мм1.6 м/с5 %
    15:00Небольшая облачность и лёгкий дождик+34°C46 %757 мм1.9 м/с12 %
    18:00Практически безоблачно+31°C67 %757 мм1.0 м/с14 %
    21:00Практически безоблачно+30°C68 %759 мм3.1 м/с20 %
Мы используем cookies
Соглашаюсь